Time;durP1;ratioP1;P1;durP2;ratioP2;P2;SDS_P1;SDS_P2;PMS_P1;PMS_P2;Temp;Humidity;BMP_temperature;BMP_pressure;BME280_temperature;BME280_humidity;BME280_pressure;Samples;Min_cycle;Max_cycle;Signal;HPM_P1;HPM_P2
2022/08/17 00:01:17;;;;;;;1.52;1.30;;;21.40;99.90;;;;;;5179844;28;20120;-61
2022/08/17 00:03:50;;;;;;;1.63;1.42;;;21.20;99.90;;;;;;5172587;28;20036;-61
2022/08/17 00:06:30;;;;;;;1.92;1.10;;;21.20;99.90;;;;;;5142817;28;20038;-61
2022/08/17 00:09:04;;;;;;;1.67;1.27;;;21.10;99.90;;;;;;5157020;28;20033;-62
2022/08/17 00:11:45;;;;;;;1.70;1.60;;;21.00;99.90;;;;;;5172206;28;20038;-62
2022/08/17 00:14:19;;;;;;;1.23;1.13;;;20.90;99.90;;;;;;5153431;28;20375;-62
2022/08/17 00:16:57;;;;;;;3.17;1.67;;;20.80;99.90;;;;;;5151709;28;20026;-62
2022/08/17 00:19:31;;;;;;;1.80;1.58;;;20.60;99.90;;;;;;5164051;28;20580;-62
2022/08/17 00:22:08;;;;;;;1.65;1.50;;;20.60;99.90;;;;;;5171224;28;20216;-61
2022/08/17 00:24:41;;;;;;;2.28;1.77;;;20.50;99.90;;;;;;5172457;28;20030;-60
2022/08/17 00:27:18;;;;;;;1.40;1.30;;;20.50;99.90;;;;;;5193035;28;20028;-60
2022/08/17 00:29:51;;;;;;;1.95;1.55;;;20.40;99.90;;;;;;5202368;28;20552;-60
2022/08/17 00:32:25;;;;;;;4.10;1.33;;;20.30;99.90;;;;;;5199423;28;20024;-61
2022/08/17 00:34:59;;;;;;;1.48;1.30;;;20.30;99.90;;;;;;5215540;28;20025;-61
2022/08/17 00:37:31;;;;;;;1.83;1.55;;;20.20;99.90;;;;;;5164447;28;20033;-61
2022/08/17 00:40:10;;;;;;;4.38;1.48;;;20.20;99.90;;;;;;5215478;28;20028;-61
2022/08/17 00:42:46;;;;;;;1.25;1.15;;;20.20;99.90;;;;;;5197240;28;20029;-61
2022/08/17 00:45:23;;;;;;;2.47;1.42;;;20.20;99.90;;;;;;5201981;28;20017;-61
2022/08/17 00:47:54;;;;;;;1.52;1.40;;;20.10;99.90;;;;;;5201942;28;20021;-61
2022/08/17 00:50:25;;;;;;;1.58;1.48;;;20.10;99.90;;;;;;5201843;28;20035;-61
2022/08/17 00:53:03;;;;;;;1.83;1.30;;;20.10;99.90;;;;;;5201345;28;20337;-61
2022/08/17 00:55:36;;;;;;;2.85;1.95;;;20.00;99.90;;;;;;5219231;28;20039;-61
2022/08/17 00:58:08;;;;;;;1.70;1.40;;;19.90;99.90;;;;;;5218511;28;20016;-61
2022/08/17 01:00:43;;;;;;;1.23;1.10;;;19.90;99.90;;;;;;5200511;28;20249;-60
2022/08/17 01:03:19;;;;;;;2.85;1.42;;;19.90;99.90;;;;;;5219127;28;20063;-62
2022/08/17 01:05:58;;;;;;;4.82;1.42;;;19.90;99.90;;;;;;5218982;28;20037;-61
2022/08/17 01:08:30;;;;;;;1.25;1.15;;;19.80;99.90;;;;;;5221942;28;20245;-61
2022/08/17 01:11:04;;;;;;;1.40;1.30;;;19.80;99.90;;;;;;5210884;28;20063;-61
2022/08/17 01:13:49;;;;;;;4.25;1.58;;;19.80;99.90;;;;;;5218861;28;20029;-62
2022/08/17 01:16:24;;;;;;;;;;;19.70;99.90;;;;;;5219758;28;20029;-62
2022/08/17 01:19:01;;;;;;;1.33;1.23;;;19.60;99.90;;;;;;5200744;28;19904;-61
2022/08/17 01:21:50;;;;;;;1.40;1.30;;;19.60;99.90;;;;;;5201712;28;20375;-61
2022/08/17 01:24:29;;;;;;;1.48;1.30;;;19.60;99.90;;;;;;5218699;28;20055;-61
2022/08/17 01:27:06;;;;;;;1.65;1.40;;;19.60;99.90;;;;;;5219218;28;20016;-61
2022/08/17 01:29:44;;;;;;;1.50;1.30;;;19.60;99.90;;;;;;5218257;28;20025;-61
2022/08/17 01:32:20;;;;;;;2.22;1.20;;;19.50;99.90;;;;;;5219523;28;20306;-61
2022/08/17 01:34:54;;;;;;;2.75;1.30;;;19.40;99.90;;;;;;5201824;28;20027;-61
2022/08/17 01:37:37;;;;;;;2.22;1.23;;;19.40;99.90;;;;;;5218846;28;20025;-61
2022/08/17 01:40:31;;;;;;;1.35;1.20;;;19.30;99.90;;;;;;5200010;28;20291;-61
2022/08/17 01:43:13;;;;;;;1.30;1.17;;;19.20;99.90;;;;;;5200675;28;20109;-61
2022/08/17 01:45:48;;;;;;;1.73;1.42;;;19.10;99.90;;;;;;5218645;28;20032;-61
2022/08/17 01:48:22;;;;;;;1.88;1.42;;;19.10;99.90;;;;;;5221383;28;20013;-61
2022/08/17 01:50:54;;;;;;;1.42;1.33;;;19.00;99.90;;;;;;5216789;28;20254;-61
2022/08/17 01:53:41;;;;;;;3.38;1.42;;;18.90;99.90;;;;;;5199543;28;20059;-60
2022/08/17 01:56:15;;;;;;;1.95;1.50;;;18.80;99.90;;;;;;5216685;28;20024;-61
2022/08/17 01:58:52;;;;;;;2.17;1.77;;;18.80;99.90;;;;;;5182169;28;20029;-60
2022/08/17 02:01:32;;;;;;;2.78;1.50;;;18.80;99.90;;;;;;5214785;28;20025;-61
2022/08/17 02:04:07;;;;;;;1.95;1.55;;;18.70;99.90;;;;;;5218227;28;20021;-61
2022/08/17 02:06:42;;;;;;;1.60;1.30;;;18.70;99.90;;;;;;5188931;28;20041;-61
2022/08/17 02:09:14;;;;;;;1.70;1.50;;;18.60;99.90;;;;;;5217925;28;20029;-62
2022/08/17 02:11:45;;;;;;;2.17;1.65;;;18.60;99.90;;;;;;5216832;28;20336;-61
2022/08/17 02:14:19;;;;;;;1.52;1.42;;;18.60;99.90;;;;;;5202469;28;20024;-61
2022/08/17 02:16:55;;;;;;;1.67;1.40;;;18.70;99.90;;;;;;5236504;28;20328;-61
2022/08/17 02:19:26;;;;;;;1.27;1.17;;;18.70;99.90;;;;;;5183322;28;20617;-61
2022/08/17 02:22:00;;;;;;;1.42;1.23;;;18.70;99.90;;;;;;5227692;28;20037;-61
2022/08/17 02:24:37;;;;;;;1.90;1.17;;;18.70;99.90;;;;;;5215722;28;20020;-61
2022/08/17 02:27:14;;;;;;;1.70;1.50;;;18.60;99.90;;;;;;5189196;28;20262;-61
2022/08/17 02:29:48;;;;;;;1.92;1.23;;;18.50;99.90;;;;;;5216139;28;20017;-61
2022/08/17 02:32:25;;;;;;;2.00;1.57;;;18.50;99.90;;;;;;5218063;28;20024;-60
2022/08/17 02:34:59;;;;;;;2.20;1.65;;;18.50;99.90;;;;;;5212026;28;20025;-61
2022/08/17 02:37:32;;;;;;;2.13;1.70;;;18.40;99.90;;;;;;5198497;28;20051;-61
2022/08/17 02:40:13;;;;;;;1.75;1.65;;;18.50;99.90;;;;;;5215983;28;20047;-61
2022/08/17 02:42:48;;;;;;;3.80;2.40;;;18.50;99.90;;;;;;5215179;28;20552;-60
2022/08/17 02:45:22;;;;;;;1.83;1.70;;;18.50;99.90;;;;;;5216460;28;20020;-61
2022/08/17 02:47:55;;;;;;;2.53;2.13;;;18.40;99.90;;;;;;5215057;28;20158;-61
2022/08/17 02:50:27;;;;;;;1.63;1.48;;;18.30;99.90;;;;;;5198233;28;20230;-61
2022/08/17 02:53:00;;;;;;;2.47;1.70;;;18.30;99.90;;;;;;5195078;28;20872;-61
2022/08/17 02:55:39;;;;;;;1.70;1.45;;;18.20;99.90;;;;;;5214520;28;20230;-61
2022/08/17 02:58:12;;;;;;;1.50;1.40;;;18.10;99.90;;;;;;5215654;28;20360;-62
2022/08/17 03:00:47;;;;;;;6.43;2.10;;;18.20;99.90;;;;;;5215736;28;20024;-62
2022/08/17 03:03:19;;;;;;;1.77;1.40;;;18.20;99.90;;;;;;5215630;28;20021;-61
2022/08/17 03:05:52;;;;;;;1.90;1.38;;;18.30;99.90;;;;;;5205415;28;20072;-61
2022/08/17 03:08:26;;;;;;;3.80;1.60;;;18.20;99.90;;;;;;5198136;28;20036;-61
2022/08/17 03:11:04;;;;;;;1.35;1.25;;;18.20;99.90;;;;;;5198794;28;20036;-61
2022/08/17 03:13:38;;;;;;;2.05;1.73;;;18.30;99.90;;;;;;5215967;28;20039;-61
2022/08/17 03:16:12;;;;;;;3.87;1.70;;;18.30;99.90;;;;;;5198647;28;20029;-61
2022/08/17 03:18:47;;;;;;;1.63;1.52;;;18.40;99.90;;;;;;5216217;28;20250;-60
2022/08/17 03:21:21;;;;;;;1.50;1.40;;;18.40;99.90;;;;;;5214526;28;20139;-61
2022/08/17 03:23:55;;;;;;;2.35;1.30;;;18.50;99.90;;;;;;5196493;28;20032;-61
2022/08/17 03:26:31;;;;;;;1.73;1.63;;;18.40;99.90;;;;;;5213981;28;20410;-60
2022/08/17 03:29:02;;;;;;;1.55;1.20;;;18.40;99.90;;;;;;5196996;28;20029;-61
2022/08/17 03:31:35;;;;;;;1.30;1.20;;;18.30;99.90;;;;;;5176329;28;20040;-61
2022/08/17 03:34:07;;;;;;;1.25;1.10;;;18.20;99.90;;;;;;5178342;28;20033;-62
2022/08/17 03:36:40;;;;;;;2.80;1.33;;;18.30;99.90;;;;;;5229346;28;20205;-60
2022/08/17 03:39:16;;;;;;;1.13;1.03;;;18.30;99.90;;;;;;5215335;28;20334;-61
2022/08/17 03:41:47;;;;;;;3.60;1.48;;;18.40;99.90;;;;;;5198482;28;20212;-60
2022/08/17 03:44:24;;;;;;;1.40;1.30;;;18.40;99.90;;;;;;5215526;28;20021;-63
2022/08/17 03:58:22;;;;;;;3.03;1.70;;;18.20;99.90;;;;;;5215746;28;20226;-61
2022/08/17 04:00:57;;;;;;;4.03;1.40;;;18.10;99.90;;;;;;5212782;28;20036;-60
2022/08/17 04:03:34;;;;;;;2.22;1.52;;;18.00;99.90;;;;;;5214300;28;20029;-63
2022/08/17 04:06:06;;;;;;;1.70;1.50;;;18.00;99.90;;;;;;5204477;28;20044;-61
2022/08/17 04:08:37;;;;;;;1.58;1.40;;;17.90;99.90;;;;;;5195759;28;20234;-61
2022/08/17 04:11:09;;;;;;;1.58;1.33;;;18.00;99.90;;;;;;5185381;28;20223;-59
2022/08/17 04:13:46;;;;;;;3.35;1.48;;;18.00;99.90;;;;;;5207460;28;20322;-61
2022/08/17 04:16:17;;;;;;;1.60;1.48;;;18.00;99.90;;;;;;5209464;28;20042;-61
2022/08/17 04:18:48;;;;;;;3.03;1.80;;;18.10;99.90;;;;;;5212603;28;20025;-61
2022/08/17 04:21:20;;;;;;;3.75;1.40;;;18.20;99.90;;;;;;5211538;28;20013;-63
2022/08/17 04:23:57;;;;;;;2.53;1.65;;;18.30;99.90;;;;;;5199209;28;20036;-61
2022/08/17 04:26:33;;;;;;;3.15;1.80;;;18.30;99.90;;;;;;5200818;28;20329;-61
2022/08/17 04:29:06;;;;;;;1.75;1.50;;;18.40;99.90;;;;;;5196280;28;20029;-61
2022/08/17 04:31:41;;;;;;;1.83;1.60;;;18.50;99.90;;;;;;5180354;28;20031;-62
2022/08/17 04:34:15;;;;;;;1.52;1.42;;;18.60;99.90;;;;;;5190181;28;20040;-62
2022/08/17 04:36:46;;;;;;;3.30;1.23;;;18.70;99.90;;;;;;5192522;28;20131;-62
2022/08/17 04:39:22;;;;;;;1.30;1.20;;;18.80;99.90;;;;;;5199345;28;20029;-62
2022/08/17 04:42:05;;;;;;;1.70;1.60;;;19.00;99.90;;;;;;5200034;28;20051;-62
2022/08/17 04:44:37;;;;;;;1.80;1.55;;;19.20;99.90;;;;;;5198014;28;20356;-62
2022/08/17 04:47:10;;;;;;;2.15;1.60;;;19.30;99.90;;;;;;5195727;28;20327;-62
2022/08/17 04:49:44;;;;;;;1.75;1.63;;;19.50;99.90;;;;;;5213405;28;20712;-63
2022/08/17 04:52:18;;;;;;;1.50;1.33;;;19.80;99.90;;;;;;5200391;28;20491;-62
2022/08/17 04:54:49;;;;;;;1.35;1.15;;;20.00;99.90;;;;;;5184107;28;20029;-61
2022/08/17 04:57:20;;;;;;;1.92;1.13;;;20.20;99.90;;;;;;5199096;28;20067;-63
2022/08/17 04:59:54;;;;;;;2.72;1.38;;;20.60;99.90;;;;;;5218159;28;20021;-61
2022/08/17 05:02:25;;;;;;;1.60;1.50;;;20.80;99.90;;;;;;5216008;28;20318;-61
2022/08/17 05:04:56;;;;;;;2.72;1.25;;;21.10;99.90;;;;;;5202586;28;20045;-63
2022/08/17 05:07:30;;;;;;;2.30;1.40;;;21.00;99.90;;;;;;5217495;28;20027;-61
2022/08/17 05:10:03;;;;;;;1.20;1.10;;;20.80;99.90;;;;;;5200791;28;20442;-61
2022/08/17 05:12:37;;;;;;;1.63;1.35;;;20.70;99.90;;;;;;5216303;28;20049;-63
2022/08/17 05:15:16;;;;;;;4.90;1.65;;;20.80;99.90;;;;;;5217661;28;20047;-63
2022/08/17 05:17:49;;;;;;;3.75;1.33;;;21.10;99.90;;;;;;5217280;28;20043;-62
2022/08/17 05:20:27;;;;;;;3.25;1.38;;;21.70;99.90;;;;;;5199039;28;20044;-62
2022/08/17 05:23:03;;;;;;;3.30;1.55;;;22.10;99.90;;;;;;5163163;28;20499;-61
2022/08/17 05:25:40;;;;;;;1.98;1.63;;;22.50;99.90;;;;;;5189452;28;20318;-61
2022/08/17 05:28:14;;;;;;;1.95;1.77;;;22.90;99.90;;;;;;5218930;28;20038;-62
2022/08/17 05:30:48;;;;;;;3.53;1.85;;;23.20;99.90;;;;;;5198427;28;20037;-62
2022/08/17 05:33:29;;;;;;;1.38;1.10;;;23.40;99.90;;;;;;5199596;28;20035;-62
2022/08/17 05:36:03;;;;;;;3.08;1.35;;;23.60;99.90;;;;;;5200146;28;20031;-62
2022/08/17 05:38:37;;;;;;;2.60;1.35;;;23.70;99.90;;;;;;5200137;28;20040;-62
2022/08/17 05:41:14;;;;;;;2.88;1.40;;;23.80;99.90;;;;;;5215667;28;20039;-62
2022/08/17 05:43:45;;;;;;;2.25;1.58;;;24.10;99.90;;;;;;5205048;28;20080;-62
2022/08/17 05:46:34;;;;;;;1.33;1.20;;;24.50;99.90;;;;;;5229237;28;20060;-61
2022/08/17 05:49:07;;;;;;;2.97;1.50;;;24.70;99.90;;;;;;5215845;28;20025;-61
2022/08/17 05:51:56;;;;;;;2.15;1.48;;;24.60;99.90;;;;;;5221151;28;20197;-61
2022/08/17 05:54:45;;;;;;;1.85;1.13;;;24.60;99.90;;;;;;5228197;28;20020;-61
2022/08/17 05:57:22;;;;;;;1.33;1.10;;;25.10;99.90;;;;;;5203618;28;20032;-62
2022/08/17 06:00:12;;;;;;;2.00;1.50;;;25.10;99.90;;;;;;5206221;28;20029;-62
2022/08/17 06:03:04;;;;;;;1.90;1.42;;;25.00;99.90;;;;;;5217326;28;20104;-62
2022/08/17 06:05:57;;;;;;;1.35;1.15;;;25.20;99.90;;;;;;5190209;28;20059;-62
2022/08/17 06:09:00;;;;;;;2.33;1.20;;;25.30;99.90;;;;;;5220018;28;20035;-61
2022/08/17 06:11:43;;;;;;;1.75;1.33;;;25.40;99.90;;;;;;5215615;28;20337;-61
2022/08/17 06:14:47;;;;;;;2.65;1.60;;;25.80;99.90;;;;;;5216649;28;20055;-62
2022/08/17 06:17:23;;;;;;;2.70;1.40;;;26.50;99.90;;;;;;5217884;28;20021;-61
2022/08/17 06:20:05;;;;;;;3.60;1.58;;;27.30;99.90;;;;;;5199806;28;20210;-62
2022/08/17 06:22:44;;;;;;;2.10;1.55;;;28.10;99.90;;;;;;5218242;28;20017;-63
2022/08/17 06:25:35;;;;;;;7.10;1.50;;;28.50;99.90;;;;;;5238732;28;20029;-62
2022/08/17 06:28:13;;;;;;;3.53;1.55;;;28.70;99.90;;;;;;5238958;28;20216;-62
2022/08/17 06:30:56;;;;;;;1.52;1.40;;;29.10;99.90;;;;;;5217574;28;20025;-64
2022/08/17 06:33:32;;;;;;;2.50;1.60;;;29.50;99.90;;;;;;5199654;28;20028;-64
2022/08/17 06:36:58;;;;;;;2.03;1.48;;;29.30;99.90;;;;;;5220358;28;20068;-63
2022/08/17 06:39:38;;;;;;;3.77;1.47;;;29.40;99.90;;;;;;5153959;28;20196;-62
2022/08/17 06:42:39;;;;;;;2.47;1.38;;;29.80;99.90;;;;;;5216845;28;20254;-62
2022/08/17 06:45:19;;;;;;;1.52;1.38;;;30.10;99.90;;;;;;5198991;28;20165;-61
2022/08/17 06:48:11;;;;;;;1.83;1.48;;;30.20;99.90;;;;;;5204732;28;20119;-62
2022/08/17 06:51:01;;;;;;;1.63;1.25;;;30.00;99.90;;;;;;5194202;28;20035;-61
2022/08/17 06:53:44;;;;;;;4.20;2.08;;;30.40;99.90;;;;;;5197057;28;20047;-61
2022/08/17 06:56:31;;;;;;;1.83;1.65;;;30.60;99.90;;;;;;5179734;28;20028;-62
2022/08/17 06:59:02;;;;;;;2.05;1.50;;;31.00;99.90;;;;;;5201524;28;20207;-63
2022/08/17 07:01:39;;;;;;;1.48;1.15;;;31.30;99.90;;;;;;5218395;28;20226;-61
2022/08/17 07:04:20;;;;;;;1.50;1.30;;;31.10;99.90;;;;;;5179896;28;20037;-62
2022/08/17 07:08:00;;;;;;;1.38;1.27;;;30.80;99.90;;;;;;5188532;28;20146;-61
2022/08/17 07:09:57;;;;;;;2.05;1.20;;;31.00;99.90;;;;;;5215672;28;20231;-62
2022/08/17 07:12:38;;;;;;;3.58;1.23;;;31.10;99.90;;;;;;5215537;28;20028;-62
2022/08/17 07:15:15;;;;;;;1.38;1.23;;;31.20;99.90;;;;;;5216482;28;20029;-62
2022/08/17 07:17:49;;;;;;;1.77;1.48;;;31.40;99.90;;;;;;5198850;28;20039;-62
2022/08/17 07:20:23;;;;;;;1.60;1.40;;;31.10;99.90;;;;;;5216147;28;20028;-61
2022/08/17 07:23:02;;;;;;;1.27;1.17;;;31.40;99.90;;;;;;5198570;28;20028;-63
2022/08/17 07:25:36;;;;;;;2.15;1.50;;;31.50;99.90;;;;;;5199261;28;20024;-62
2022/08/17 07:28:07;;;;;;;1.20;1.10;;;31.70;99.90;;;;;;5198539;28;20016;-62
2022/08/17 07:30:52;;;;;;;1.98;1.30;;;32.20;99.90;;;;;;5216890;28;20444;-63
2022/08/17 07:33:39;;;;;;;1.80;1.38;;;32.20;99.90;;;;;;5217083;28;20029;-61
2022/08/17 07:36:32;;;;;;;1.40;1.30;;;32.00;99.90;;;;;;5217035;28;20017;-62
2022/08/17 07:39:10;;;;;;;2.00;1.73;;;31.90;99.90;;;;;;5217431;28;20041;-62
2022/08/17 07:41:41;;;;;;;2.85;1.70;;;32.30;99.90;;;;;;5200283;28;20234;-63
2022/08/17 07:44:17;;;;;;;1.88;1.08;;;32.20;99.90;;;;;;5198654;28;20207;-62
2022/08/17 07:49:46;;;;;;;2.47;1.57;;;32.80;99.90;;;;;;5216451;28;20016;-61
2022/08/17 07:52:36;;;;;;;1.30;1.20;;;33.00;99.90;;;;;;5216464;28;20318;-62
2022/08/17 07:55:33;;;;;;;4.05;1.45;;;32.80;99.90;;;;;;5219810;28;20580;-62
2022/08/17 07:58:11;;;;;;;1.40;1.13;;;33.20;99.90;;;;;;5204072;28;20035;-62
2022/08/17 08:00:44;;;;;;;1.55;1.40;;;33.20;99.90;;;;;;5201584;28;20316;-62
2022/08/17 08:03:26;;;;;;;1.47;1.30;;;33.20;99.90;;;;;;5202344;28;20033;-62
2022/08/17 08:06:04;;;;;;;2.05;1.67;;;33.20;99.90;;;;;;5209112;28;20055;-63
2022/08/17 08:08:41;;;;;;;2.65;1.33;;;33.40;99.90;;;;;;5218923;28;20043;-61
2022/08/17 08:11:28;;;;;;;3.10;1.60;;;32.60;99.90;;;;;;5203049;28;20025;-63
2022/08/17 08:14:22;;;;;;;2.28;1.55;;;33.20;99.90;;;;;;5208027;28;20051;-63
2022/08/17 08:17:03;;;;;;;1.55;1.38;;;33.80;99.90;;;;;;5220053;28;20295;-63
2022/08/17 08:19:35;;;;;;;1.13;1.02;;;33.90;99.90;;;;;;5201615;28;20039;-62
2022/08/17 08:22:29;;;;;;;1.65;1.13;;;33.90;99.90;;;;;;5220593;28;20025;-64
2022/08/17 08:25:17;;;;;;;4.07;1.27;;;33.70;99.90;;;;;;5230295;28;20043;-62
2022/08/17 08:28:10;;;;;;;1.92;1.45;;;34.00;99.90;;;;;;5218126;28;20040;-63
2022/08/17 08:30:51;;;;;;;2.00;1.35;;;33.50;99.90;;;;;;5223589;28;20307;-63
2022/08/17 08:34:07;;;;;;;4.82;1.42;;;33.70;99.90;;;;;;5220848;28;20023;-62
2022/08/17 08:37:13;;;;;;;2.28;1.80;;;34.20;99.90;;;;;;5232570;28;20035;-62
2022/08/17 08:39:56;;;;;;;2.92;1.80;;;34.40;99.90;;;;;;5178660;28;20155;-63
2022/08/17 08:42:45;;;;;;;3.13;1.43;;;34.00;99.90;;;;;;5218725;28;20290;-63
2022/08/17 08:45:22;;;;;;;1.58;1.30;;;33.70;99.90;;;;;;5220772;28;20310;-62
2022/08/17 08:48:31;;;;;;;2.25;2.00;;;34.40;99.90;;;;;;5219933;28;20029;-61
2022/08/17 08:51:10;;;;;;;2.63;2.00;;;34.80;99.90;;;;;;5164979;28;20044;-64
2022/08/17 08:54:07;;;;;;;2.35;1.40;;;34.50;99.90;;;;;;5220082;28;20024;-64
2022/08/17 08:56:53;;;;;;;4.25;1.92;;;34.80;99.90;;;;;;5201824;28;20035;-62
2022/08/17 08:59:49;;;;;;;2.10;1.73;;;35.70;99.90;;;;;;5201647;28;20324;-62
2022/08/17 09:02:32;;;;;;;2.50;1.67;;;35.50;99.90;;;;;;5202061;28;20097;-62
2022/08/17 09:05:25;;;;;;;2.75;1.67;;;35.20;99.90;;;;;;5207497;28;20068;-63
2022/08/17 09:08:18;;;;;;;1.58;1.48;;;35.40;99.90;;;;;;5200952;28;20025;-62
2022/08/17 09:11:13;;;;;;;3.13;1.40;;;35.30;99.90;;;;;;5195190;28;20025;-62
2022/08/17 09:13:59;;;;;;;1.63;1.40;;;35.20;99.90;;;;;;5221149;28;20309;-63
2022/08/17 09:16:31;;;;;;;1.63;1.52;;;35.20;99.90;;;;;;5219725;28;20419;-63
2022/08/17 09:19:36;;;;;;;2.38;1.67;;;35.50;99.90;;;;;;5201988;28;20025;-63
2022/08/17 09:22:34;;;;;;;1.95;1.60;;;36.00;99.90;;;;;;5206217;28;20035;-62
2022/08/17 09:25:21;;;;;;;1.80;1.50;;;35.80;99.90;;;;;;5174542;28;20464;-62
2022/08/17 09:28:06;;;;;;;1.40;1.30;;;35.60;99.90;;;;;;5217255;28;20039;-63
2022/08/17 09:30:48;;;;;;;2.05;1.88;;;35.90;99.90;;;;;;5219332;28;20029;-63
2022/08/17 09:33:25;;;;;;;3.35;1.70;;;36.10;99.90;;;;;;5219069;28;20233;-63
2022/08/17 09:35:57;;;;;;;2.08;1.33;;;36.30;99.90;;;;;;5187260;28;20063;-62
2022/08/17 09:38:43;;;;;;;1.83;1.58;;;36.20;99.90;;;;;;5230234;28;20334;-63
2022/08/17 09:41:31;;;;;;;1.88;1.70;;;36.30;99.90;;;;;;5238647;28;20241;-63
2022/08/17 09:44:27;;;;;;;4.78;1.77;;;36.30;99.90;;;;;;5221311;28;20029;-65
2022/08/17 09:47:14;;;;;;;1.40;1.30;;;36.50;99.90;;;;;;5214448;28;20028;-63
2022/08/17 09:49:52;;;;;;;1.83;1.30;;;36.70;99.90;;;;;;5198448;28;20028;-63
2022/08/17 09:52:30;;;;;;;1.65;1.50;;;37.00;99.90;;;;;;5179096;28;20202;-63
2022/08/17 09:55:04;;;;;;;1.60;1.42;;;37.20;99.90;;;;;;5198732;28;20021;-62
2022/08/17 09:57:50;;;;;;;1.65;1.55;;;36.80;99.90;;;;;;5202534;28;20021;-62
2022/08/17 10:00:32;;;;;;;1.83;1.60;;;37.30;99.90;;;;;;5180714;28;20032;-60
2022/08/17 10:03:15;;;;;;;1.40;1.30;;;38.10;99.90;;;;;;5212742;28;20024;-62
2022/08/17 10:06:05;;;;;;;2.22;1.73;;;38.00;99.90;;;;;;5210267;28;20041;-63
2022/08/17 10:08:52;;;;;;;1.90;1.80;;;37.90;99.90;;;;;;5222263;28;20021;-63
2022/08/17 10:14:44;;;;;;;5.18;1.60;;;37.00;99.90;;;;;;5218209;28;20025;-63
2022/08/17 10:17:49;;;;;;;2.88;1.70;;;37.80;99.90;;;;;;5217798;28;20013;-62
2022/08/17 10:26:11;;;;;;;2.50;1.70;;;38.00;99.90;;;;;;5200821;28;20028;-62
2022/08/17 10:26:41;;;;;;;1.67;1.58;;;38.20;99.90;;;;;;5200295;28;20048;-62
2022/08/17 10:29:22;;;;;;;1.70;1.60;;;38.30;99.90;;;;;;5198611;28;20017;-62
2022/08/17 10:32:03;;;;;;;2.35;1.60;;;38.50;99.90;;;;;;5198464;28;20043;-63
2022/08/17 10:34:49;;;;;;;5.07;2.20;;;39.60;99.90;;;;;;5218598;28;20039;-62
2022/08/17 10:37:42;;;;;;;3.17;2.00;;;39.60;99.40;;;;;;5210535;28;20328;-62
2022/08/17 10:40:44;;;;;;;2.40;2.20;;;40.80;98.60;;;;;;5219454;28;20051;-61
2022/08/17 10:43:57;;;;;;;2.10;1.90;;;41.50;97.20;;;;;;5197678;28;20296;-62
2022/08/17 10:47:10;;;;;;;1.80;1.70;;;41.40;96.20;;;;;;5192430;28;20339;-62
2022/08/17 10:49:52;;;;;;;2.05;1.85;;;40.60;96.20;;;;;;5198828;28;20021;-63
2022/08/17 10:52:26;;;;;;;1.88;1.77;;;41.10;96.50;;;;;;5198670;28;20296;-61
2022/08/17 10:55:06;;;;;;;1.80;1.70;;;39.40;96.40;;;;;;5206699;28;20051;-63
2022/08/17 10:57:48;;;;;;;2.63;2.13;;;40.90;96.00;;;;;;5218748;28;20029;-63
2022/08/17 11:00:26;;;;;;;1.80;1.70;;;42.20;94.40;;;;;;5219201;28;20035;-62
2022/08/17 11:02:59;;;;;;;1.80;1.70;;;43.20;93.50;;;;;;5225070;28;20486;-64
2022/08/17 11:05:45;;;;;;;1.63;1.52;;;42.70;92.40;;;;;;5206076;28;20091;-62
2022/08/17 11:08:27;;;;;;;3.45;1.63;;;44.10;91.20;;;;;;5197528;28;20044;-63
2022/08/17 11:11:19;;;;;;;5.00;2.00;;;45.10;90.70;;;;;;5218208;28;20205;-63
2022/08/17 11:14:07;;;;;;;2.78;1.52;;;42.70;90.40;;;;;;5223917;28;20341;-63
2022/08/17 11:17:37;;;;;;;1.80;1.70;;;43.30;89.90;;;;;;5219335;28;20021;-64
2022/08/17 11:20:43;;;;;;;1.80;1.40;;;44.90;89.10;;;;;;5218603;28;20048;-64
2022/08/17 11:23:43;;;;;;;1.75;1.65;;;45.10;84.30;;;;;;5214640;28;20029;-62
2022/08/17 11:26:46;;;;;;;1.50;1.40;;;45.30;83.40;;;;;;5210450;28;20043;-64
2022/08/17 11:29:28;;;;;;;1.65;1.55;;;44.20;85.50;;;;;;5214408;28;20157;-63
2022/08/17 11:32:07;;;;;;;1.80;1.70;;;44.90;85.30;;;;;;5228832;28;20036;-63
2022/08/17 11:34:42;;;;;;;1.75;1.65;;;44.60;84.20;;;;;;5199497;28;20033;-63
2022/08/17 11:37:48;;;;;;;2.20;2.05;;;44.20;85.30;;;;;;5198215;28;20036;-62
2022/08/17 11:40:54;;;;;;;1.95;1.80;;;44.90;84.20;;;;;;5176156;28;20107;-62
2022/08/17 11:43:44;;;;;;;2.13;1.70;;;45.00;82.60;;;;;;5166038;28;20044;-62
2022/08/17 11:52:56;;;;;;;2.20;1.77;;;44.90;81.50;;;;;;5162838;28;20025;-64
2022/08/17 11:55:31;;;;;;;2.00;1.90;;;45.10;81.00;;;;;;5160662;28;20472;-61
2022/08/17 11:58:27;;;;;;;2.80;1.90;;;42.90;81.40;;;;;;5155969;28;20030;-65
2022/08/17 12:01:25;;;;;;;1.88;1.65;;;43.50;82.70;;;;;;5154411;28;20042;-64
2022/08/17 12:04:33;;;;;;;3.95;2.22;;;44.70;81.20;;;;;;5130006;28;20039;-62
2022/08/17 12:07:15;;;;;;;1.73;1.60;;;44.30;79.00;;;;;;5130896;28;20054;-63
2022/08/17 12:09:56;;;;;;;2.30;2.10;;;43.60;80.30;;;;;;5139312;28;20355;-64
2022/08/17 12:12:46;;;;;;;1.58;1.48;;;41.20;82.00;;;;;;5137137;28;20030;-63
2022/08/17 12:15:40;;;;;;;2.13;1.80;;;40.70;84.90;;;;;;5153431;28;20247;-63
2022/08/17 12:18:28;;;;;;;1.80;1.52;;;42.20;83.60;;;;;;5196838;28;20338;-62
2022/08/17 12:21:17;;;;;;;1.67;1.58;;;43.60;80.60;;;;;;5219566;28;20027;-63
2022/08/17 12:24:05;;;;;;;2.78;1.95;;;44.50;79.60;;;;;;5218099;28;20052;-62
2022/08/17 12:26:45;;;;;;;1.98;1.85;;;45.30;79.00;;;;;;5217395;28;20041;-64
2022/08/17 12:29:17;;;;;;;2.00;1.80;;;46.10;78.40;;;;;;5219000;28;20206;-62
2022/08/17 12:31:53;;;;;;;3.30;2.10;;;45.60;77.70;;;;;;5212691;28;20013;-62
2022/08/17 12:34:28;;;;;;;2.20;2.00;;;44.90;77.90;;;;;;5235109;28;20029;-63
2022/08/17 12:37:11;;;;;;;3.33;2.83;;;45.40;78.30;;;;;;5200401;28;20318;-62
2022/08/17 12:39:57;;;;;;;1.83;1.73;;;46.60;76.00;;;;;;5219653;28;20182;-64
2022/08/17 12:42:38;;;;;;;2.40;2.20;;;47.30;75.00;;;;;;5223099;28;20025;-63
2022/08/17 12:45:33;;;;;;;2.65;2.17;;;46.80;74.70;;;;;;5209665;28;20186;-65
2022/08/17 12:48:08;;;;;;;3.55;1.80;;;46.30;75.40;;;;;;5203657;28;20035;-63
2022/08/17 12:50:43;;;;;;;3.72;2.22;;;46.60;74.50;;;;;;5221838;28;20031;-65
2022/08/17 12:53:21;;;;;;;1.80;1.70;;;45.50;75.00;;;;;;5220815;28;20062;-62
2022/08/17 12:55:56;;;;;;;1.92;1.77;;;44.20;75.80;;;;;;5221278;28;20031;-62
2022/08/17 12:58:53;;;;;;;2.10;1.90;;;44.00;76.10;;;;;;5211227;28;20029;-63
2022/08/17 13:01:25;;;;;;;2.38;2.00;;;42.50;77.60;;;;;;5232623;28;20538;-61
2022/08/17 13:03:58;;;;;;;4.20;2.20;;;43.70;76.70;;;;;;5220742;28;20446;-62
2022/08/17 13:06:31;;;;;;;;;;;44.80;75.50;;;;;;5190660;28;20060;-62
2022/08/17 13:09:27;;;;;;;2.47;2.28;;;45.60;75.10;;;;;;5202596;28;19901;-63
2022/08/17 13:11:59;;;;;;;2.40;2.20;;;47.00;73.40;;;;;;5204551;28;20021;-62
2022/08/17 13:14:34;;;;;;;1.98;1.83;;;47.20;73.20;;;;;;5220069;28;20024;-62
2022/08/17 13:17:05;;;;;;;2.10;2.00;;;47.70;72.80;;;;;;5202646;28;20030;-65
2022/08/17 13:19:49;;;;;;;2.20;2.10;;;48.50;72.10;;;;;;5201463;28;20031;-61
2022/08/17 13:22:21;;;;;;;;;;;47.60;71.10;;;;;;5219903;28;20033;-62
2022/08/17 13:25:04;;;;;;;2.08;1.98;;;48.00;71.10;;;;;;5202052;28;19914;-65
2022/08/17 13:27:40;;;;;;;2.08;1.80;;;46.90;70.50;;;;;;5186276;28;20937;-63
2022/08/17 13:30:13;;;;;;;1.98;1.88;;;46.60;71.60;;;;;;5224279;28;20032;-64
2022/08/17 13:32:47;;;;;;;2.08;1.98;;;46.30;72.40;;;;;;5202543;28;20021;-63
2022/08/17 13:35:37;;;;;;;2.08;1.95;;;47.60;72.20;;;;;;5201847;28;20051;-64
2022/08/17 13:38:12;;;;;;;2.33;1.85;;;47.40;70.20;;;;;;5164855;28;20496;-63
2022/08/17 13:40:53;;;;;;;2.35;2.15;;;47.70;71.60;;;;;;5197760;28;20022;-62
2022/08/17 13:43:57;;;;;;;2.15;2.00;;;48.40;70.00;;;;;;5219934;28;20374;-63
2022/08/17 13:46:31;;;;;;;2.05;1.95;;;47.00;70.70;;;;;;5155460;28;20224;-62
2022/08/17 13:49:12;;;;;;;2.38;2.05;;;47.30;70.80;;;;;;5156223;28;20333;-61
2022/08/17 13:51:49;;;;;;;2.00;1.90;;;47.30;69.60;;;;;;5138547;28;20312;-63
2022/08/17 13:54:31;;;;;;;3.28;2.15;;;46.70;69.90;;;;;;5156433;28;20048;-61
2022/08/17 13:57:02;;;;;;;2.17;2.08;;;47.50;69.60;;;;;;5162377;28;20042;-62
2022/08/17 13:59:47;;;;;;;2.50;2.25;;;48.30;69.90;;;;;;5156034;28;20058;-61
2022/08/17 14:02:26;;;;;;;2.40;2.20;;;49.30;68.00;;;;;;5156651;28;20209;-63
2022/08/17 14:05:00;;;;;;;5.22;2.30;;;48.00;68.10;;;;;;5140594;28;20057;-64
2022/08/17 14:07:35;;;;;;;1.92;1.83;;;47.70;68.10;;;;;;5166016;28;20057;-64
2022/08/17 14:10:16;;;;;;;3.47;1.80;;;46.60;70.70;;;;;;5175664;28;20045;-62
2022/08/17 14:12:55;;;;;;;1.95;1.77;;;47.20;68.70;;;;;;5159213;28;20234;-62
2022/08/17 14:15:26;;;;;;;1.88;1.75;;;47.80;68.10;;;;;;5162496;28;20029;-63
2022/08/17 14:17:57;;;;;;;2.00;1.90;;;48.10;68.30;;;;;;5158859;28;20200;-62
2022/08/17 14:20:31;;;;;;;2.08;1.98;;;47.30;68.10;;;;;;5176201;28;20032;-63
2022/08/17 14:23:07;;;;;;;2.42;2.22;;;45.90;69.50;;;;;;5218690;28;20257;-64
2022/08/17 14:25:39;;;;;;;2.25;2.05;;;46.40;70.40;;;;;;5224421;28;20043;-62